MSC Channe — CQZK — position and weather

sailwx.info

Track history (hours):
 
Tides and Currents Weather Stations Pressure Air Temp Water Temp Dewpoint Dewpoint Depression Visibility Wind Speed Wind Dir Waves Ship Positions

MSC Channe

Last reported at 2017-Nov-07 11:32 UTC. Time now 2017-Nov-23 00:19 UTC.
Position N 32°14' W 117°30'.
Warning: this ship's position is 15 days out of date.

Length 299 m; draft 10.8 m.

Type: Ship (hazmat cat B). MMSI: 255805864.

Date/timePositionNaut miles runAvg speedWind from/ knotsBaromVisibWave heightAir tempDewpointWater temp
2017-Nov-07 11:32N 32°14' W 117°30'116.5
2017-Nov-07 11:30N 32°15' W 117°31'816.2
2017-Nov-07 11:00N 32°22' W 117°34'815.9
2017-Nov-07 10:30N 32°30' W 117°36'612.8
2017-Nov-07 10:01N 32°36' W 117°39'510.9
2017-Nov-07 09:30N 32°41' W 117°42'611.2
2017-Nov-07 09:00N 32°45' W 117°46'611.5
2017-Nov-07 08:31N 32°50' W 117°49'611.5
2017-Nov-07 08:00N 32°55' W 117°53'611.2
2017-Nov-07 07:30N 33°00' W 117°56'611.3
2017-Nov-07 07:00N 33°05' W 117°59'611.1
2017-Nov-07 06:30N 33°10' W 118°02'511.0
2017-Nov-07 06:00N 33°15' W 118°05'511.0
2017-Nov-07 05:31N 33°20' W 118°07'611.1
2017-Nov-07 05:00N 33°26' W 118°09'611.6
2017-Nov-07 04:31N 33°31' W 118°11'611.0
2017-Nov-07 04:00N 33°36' W 118°13'611.2
2017-Nov-07 03:30N 33°42' W 118°11'3 6.7
2017-Nov-07 03:00N 33°45' W 118°13'1 0.2
2017-Nov-06 21:47N 33°45' W 118°14'92 4.7
2017-Nov-06 02:26N 34°12' W 119°60'6 9.6
2017-Nov-06 01:49N 34°14' W 120°07'3 9.3
2017-Nov-06 01:30N 34°15' W 120°10'5 9.5
2017-Nov-06 00:59N 34°16' W 120°16'6 9.7
2017-Nov-06 00:24N 34°18' W 120°23'4 9.9
2017-Nov-06 00:00N 34°19' W 120°27'5 9.9
2017-Nov-05 23:30N 34°20' W 120°33'5 9.7
2017-Nov-05 22:58N 34°21' W 120°39'6 9.8
2017-Nov-05 22:24N 34°23' W 120°45'4 9.6
2017-Nov-05 22:00N 34°24' W 120°50'611.0
2017-Nov-05 21:30N 34°26' W 120°56'816.4
2017-Nov-05 21:00N 34°29' W 121°05'815.5
2017-Nov-05 20:30N 34°35' W 121°11'816.2
2017-Nov-05 20:00N 34°42' W 121°16'714.2
2017-Nov-05 19:30N 34°48' W 121°20'714.0
2017-Nov-05 19:00N 34°54' W 121°24'713.6
2017-Nov-05 18:30N 35°00' W 121°28'713.7
2017-Nov-05 18:00N 35°06' W 121°32'714.2
2017-Nov-05 17:30N 35°13' W 121°36'714.0
2017-Nov-05 17:00N 35°19' W 121°40'714.0
2017-Nov-05 16:30N 35°25' W 121°44'1014.0
2017-Nov-05 15:47N 35°34' W 121°50'8714.0
2017-Nov-05 09:33N 36°53' W 122°36'214.2
2017-Nov-05 09:25N 36°55' W 122°36'614.2
2017-Nov-05 09:00N 37°01' W 122°39'714.5
2017-Nov-05 08:30N 37°07' W 122°42'714.3
2017-Nov-05 08:00N 37°14' W 122°44'611.0
2017-Nov-05 07:30N 37°20' W 122°44'5 9.7
2017-Nov-05 07:01N 37°25' W 122°44'5 9.5
2017-Nov-05 06:30N 37°29' W 122°44'5 9.6
2017-Nov-05 06:00N 37°34' W 122°44'5 9.5
2017-Nov-05 05:30N 37°39' W 122°43'5 9.4
2017-Nov-05 05:00N 37°43' W 122°42'5 9.4
2017-Nov-05 04:31N 37°46' W 122°37'816.8
2017-Nov-05 04:01N 37°50' W 122°27'611.4
2017-Nov-05 03:31N 37°48' W 122°21'3 5.1
2017-Nov-05 03:01N 37°48' W 122°17'1 1.9
2017-Nov-05 02:31N 37°48' W 122°19'1 1.2
2017-Nov-05 02:01N 37°48' W 122°19'0 0.0
2017-Nov-05 01:31N 37°48' W 122°19'0 0.0
2017-Nov-05 01:01N 37°48' W 122°19'0 0.0
2017-Nov-05 00:30N 37°48' W 122°19'0 0.0
2017-Nov-05 00:00N 37°48' W 122°19'0 0.0
2017-Nov-04 23:30N 37°48' W 122°19'0 0.0
2017-Nov-04 23:00N 37°48' W 122°19'0 0.0
2017-Nov-04 22:29N 37°48' W 122°19'0 0.0
2017-Nov-04 22:00N 37°48' W 122°19'0 0.0
2017-Nov-04 21:29N 37°48' W 122°19'0 0.0
2017-Nov-04 20:59N 37°48' W 122°19'0 0.0
2017-Nov-04 20:30N 37°48' W 122°19'0 0.0
2017-Nov-04 19:59N 37°48' W 122°19'0 0.0
2017-Nov-04 19:29N 37°48' W 122°19'0 0.0
2017-Nov-04 18:59N 37°48' W 122°19'0 0.0
2017-Nov-04 18:30N 37°48' W 122°19'0 0.0
2017-Nov-04 17:59N 37°48' W 122°19'0 0.0
2017-Nov-04 17:29N 37°48' W 122°19'0 0.0
2017-Nov-04 17:00N 37°48' W 122°19'0 0.0
2017-Nov-04 16:29N 37°48' W 122°19'0 0.0
2017-Nov-04 16:00N 37°48' W 122°19'0 0.0
2017-Nov-04 15:29N 37°48' W 122°19'0 0.0
2017-Nov-04 14:59N 37°48' W 122°19'0 0.0
2017-Nov-04 14:29N 37°48' W 122°19'0 0.0
2017-Nov-04 14:00N 37°48' W 122°19'0 0.0
2017-Nov-04 13:29N 37°48' W 122°19'0 0.0
2017-Nov-04 13:00N 37°48' W 122°19'3 6.2
2017-Nov-04 12:31N 37°49' W 122°23'612.7
2017-Nov-04 12:01N 37°48' W 122°31'815.4
2017-Nov-04 11:30N 37°46' W 122°40'4 8.5
2017-Nov-04 11:00N 37°46' W 122°46'3 6.5
2017-Nov-04 10:30N 37°48' W 122°49'4 8.9
2017-Nov-04 10:00N 37°50' W 122°54'5 9.1
2017-Nov-04 09:30N 37°52' W 122°59'5 9.0
2017-Nov-04 09:00N 37°54' W 123°05'4 8.8
2017-Nov-04 08:30N 37°56' W 123°09'4 9.0
2017-Nov-04 08:00N 37°59' W 123°13'5 9.4
2017-Nov-04 07:30N 38°03' W 123°17'5 9.5
2017-Nov-04 07:00N 38°07' W 123°21'510.7
2017-Nov-04 06:30N 38°11' W 123°25'612.4
2017-Nov-04 06:00N 38°16' W 123°29'713.2
2017-Nov-04 05:30N 38°22' W 123°34'713.3
2017-Nov-04 05:00N 38°27' W 123°39'713.4
2017-Nov-04 04:30N 38°33' W 123°44'713.4
2017-Nov-04 04:00N 38°38' W 123°48'713.2
2017-Nov-04 03:30N 38°44' W 123°53'612.6
2017-Nov-04 03:00N 38°49' W 123°58'39013.8
2017-Nov-02 22:49N 45°16' W 125°05'414.0
2017-Nov-02 22:30N 45°20' W 125°05'714.0
2017-Nov-02 22:01N 45°27' W 125°06'713.7
2017-Nov-02 21:30N 45°34' W 125°06'713.8
2017-Nov-02 21:01N 45°41' W 125°06'714.1
2017-Nov-02 20:30N 45°48' W 125°07'714.7
2017-Nov-02 20:01N 45°55' W 125°08'815.6
2017-Nov-02 19:31N 46°03' W 125°09'815.1
2017-Nov-02 19:01N 46°10' W 125°09'714.7
2017-Nov-02 18:30N 46°18' W 125°09'714.6
2017-Nov-02 18:01N 46°25' W 125°10'715.0
2017-Nov-02 17:31N 46°32' W 125°10'714.9
2017-Nov-02 17:00N 46°40' W 125°10'714.8
2017-Nov-02 16:30N 46°47' W 125°11'714.8
2017-Nov-02 16:01N 46°55' W 125°12'7019.2
2017-Nov-02 12:21N 48°05' W 125°13'821.0
2017-Nov-02 11:58N 48°13' W 125°11'511.6
2017-Nov-02 11:30N 48°18' W 125°09'5 9.2
2017-Nov-02 10:59N 48°23' W 125°08'510.3
2017-Nov-02 10:30N 48°27' W 125°05'510.1
2017-Nov-02 10:00N 48°31' W 124°60'510.4
2017-Nov-02 09:30N 48°31' W 124°52'5 9.6
2017-Nov-02 09:00N 48°31' W 124°45'4 8.2
2017-Nov-02 08:30N 48°29' W 124°39'5 9.1
2017-Nov-02 08:00N 48°27' W 124°33'4 8.2
2017-Nov-02 07:30N 48°26' W 124°27'510.1
2017-Nov-02 07:00N 48°24' W 124°20'510.6
2017-Nov-02 06:30N 48°22' W 124°12'611.4
2017-Nov-02 06:00N 48°20' W 124°04'611.4
2017-Nov-02 05:30N 48°18' W 123°56'612.8
2017-Nov-02 05:00N 48°17' W 123°47'715.1
2017-Nov-02 04:30N 48°16' W 123°36'713.6
2017-Nov-02 04:01N 48°13' W 123°27'510.6
2017-Nov-02 03:30N 48°09' W 123°21'1019.7
2017-Nov-02 03:00N 48°13' W 123°07'1020.4
2017-Nov-02 02:30N 48°12' W 122°52'1320.8
2017-Nov-02 01:52N 48°02' W 122°38'821.5
2017-Nov-02 01:31N 47°56' W 122°31'918.8
2017-Nov-02 01:01N 47°47' W 122°26'917.4
2017-Nov-02 00:31N 47°39' W 122°27'510.2
2017-Nov-02 00:00N 47°36' W 122°21'0 0.1
2017-Nov-01 23:31N 47°36' W 122°21'0 0.0
2017-Nov-01 23:00N 47°36' W 122°21'0 0.0
2017-Nov-01 22:30N 47°36' W 122°21'0 0.0
2017-Nov-01 22:00N 47°36' W 122°21'0 0.0
2017-Nov-01 21:31N 47°36' W 122°21'0 0.0
2017-Nov-01 21:00N 47°36' W 122°21'0 0.0
2017-Nov-01 20:30N 47°36' W 122°21'0 0.0
2017-Nov-01 20:00N 47°36' W 122°21'0 0.0
2017-Nov-01 19:30N 47°36' W 122°21'0 0.0
2017-Nov-01 19:00N 47°36' W 122°21'0 0.0
2017-Nov-01 18:30N 47°36' W 122°21'0 0.0
2017-Nov-01 02:00N 47°36' W 122°21'0 0.0
2017-Nov-01 01:30N 47°36' W 122°21'0 0.0
2017-Nov-01 01:00N 47°36' W 122°21'0 0.0
2017-Nov-01 00:30N 47°36' W 122°21'0 0.0
2017-Nov-01 00:00N 47°36' W 122°21'0 0.0
2017-Oct-31 23:30N 47°36' W 122°21'0 0.0
2017-Oct-31 23:00N 47°36' W 122°21'0 0.0
2017-Oct-31 22:30N 47°36' W 122°21'0 0.0
2017-Oct-31 22:00N 47°36' W 122°21'0 0.0
2017-Oct-31 21:30N 47°36' W 122°21'0 0.0
2017-Oct-31 21:01N 47°36' W 122°21'0 0.0
2017-Oct-31 20:30N 47°36' W 122°21'0 0.0
2017-Oct-31 20:00N 47°36' W 122°21'0 0.0
2017-Oct-31 19:30N 47°36' W 122°21'0 0.0
2017-Oct-31 19:00N 47°36' W 122°21'0 0.0
2017-Oct-31 18:30N 47°36' W 122°21'0 0.0
2017-Oct-31 18:00N 47°36' W 122°21'0 0.0
2017-Oct-31 17:30N 47°36' W 122°21'0 0.0
2017-Oct-31 17:01N 47°36' W 122°21'2 3.5
2017-Oct-31 16:30N 47°36' W 122°23'613.0
2017-Oct-31 16:01N 47°42' W 122°28'1021.0
2017-Oct-31 15:31N 47°52' W 122°29'1119.7
2017-Oct-31 14:58N 48°01' W 122°38'918.9
2017-Oct-31 14:30N 48°09' W 122°43'1019.5
2017-Oct-31 14:00N 48°11' W 122°57'1020.5
2017-Oct-31 13:31N 48°11' W 123°13'714.9
2017-Oct-31 13:01N 48°10' W 123°24'4 8.8
2017-Oct-31 12:30N 48°12' W 123°29'4 6.9
2017-Oct-31 11:59N 48°16' W 123°30'4 8.9
2017-Oct-31 11:30N 48°19' W 123°27'4 7.9
2017-Oct-31 11:00N 48°23' W 123°24'816.9
2017-Oct-31 10:30N 48°25' W 123°12'1122.7
2017-Oct-31 10:00N 48°37' W 123°14'917.2
2017-Oct-31 09:30N 48°44' W 123°08'815.2
2017-Oct-31 09:00N 48°51' W 123°04'919.0
2017-Oct-31 08:30N 49°00' W 123°10'1 2.4
2017-Oct-31 07:57N 49°01' W 123°09'0 0.0
2017-Oct-31 07:27N 49°01' W 123°09'0 0.0
2017-Oct-31 06:57N 49°01' W 123°09'0 0.0
2017-Oct-31 06:30N 49°01' W 123°09'0 0.0
2017-Oct-31 05:57N 49°01' W 123°09'0 0.0
2017-Oct-31 05:30N 49°01' W 123°09'0 0.0
2017-Oct-31 05:01N 49°01' W 123°09'0 0.0
2017-Oct-31 04:27N 49°01' W 123°09'0 0.0
2017-Oct-31 04:00N 49°01' W 123°09'0 0.0
2017-Oct-31 03:27N 49°01' W 123°09'0 0.0
2017-Oct-31 02:57N 49°01' W 123°09'0 0.0
2017-Oct-31 02:27N 49°01' W 123°09'0 0.0
2017-Oct-31 01:48N 49°01' W 123°09'0 0.0
2017-Oct-31 01:27N 49°01' W 123°09'0 0.0
2017-Oct-31 01:00N 49°01' W 123°09'0 0.0
2017-Oct-31 00:30N 49°01' W 123°09'0 0.0
2017-Oct-31 00:00N 49°01' W 123°09'0 0.0
2017-Oct-30 23:27N 49°01' W 123°09'0 0.0
2017-Oct-30 22:57N 49°01' W 123°09'0 0.0
2017-Oct-30 22:27N 49°01' W 123°09'0 0.0
2017-Oct-30 22:00N 49°01' W 123°09'0 0.0
2017-Oct-30 21:30N 49°01' W 123°09'0 0.0
2017-Oct-30 20:57N 49°01' W 123°09'0 0.0
2017-Oct-30 20:27N 49°01' W 123°09'0 0.0
2017-Oct-30 19:57N 49°01' W 123°09'0 0.0
2017-Oct-30 19:30N 49°01' W 123°09'0 0.0
2017-Oct-30 18:57N 49°01' W 123°09'0 0.0
2017-Oct-30 18:24N 49°01' W 123°09'0 0.0
2017-Oct-30 17:57N 49°01' W 123°09'0 0.0
2017-Oct-30 17:27N 49°01' W 123°09'0 0.0
2017-Oct-30 16:54N 49°01' W 123°09'0 0.0
2017-Oct-30 16:27N 49°01' W 123°09'0 0.0
2017-Oct-30 15:57N 49°01' W 123°09'0 0.0
2017-Oct-30 15:27N 49°01' W 123°09'0 0.0
2017-Oct-30 15:00N 49°01' W 123°09'0 0.0
2017-Oct-30 14:00N 49°01' W 123°09'0 0.0
2017-Oct-30 13:30N 49°01' W 123°09'0 0.0
2017-Oct-30 13:00N 49°01' W 123°09'0 0.0
2017-Oct-30 12:30N 49°01' W 123°09'0 0.0
2017-Oct-30 11:54N 49°01' W 123°09'0 0.0
2017-Oct-30 11:30N 49°01' W 123°09'0 0.0
2017-Oct-30 10:57N 49°01' W 123°09'0 0.0
2017-Oct-30 10:30N 49°01' W 123°09'0 0.0
2017-Oct-30 09:57N 49°01' W 123°09'0 0.0
2017-Oct-30 09:27N 49°01' W 123°09'0 0.0
2017-Oct-30 09:00N 49°01' W 123°09'0 0.0
2017-Oct-30 08:30N 49°01' W 123°09'0 0.0
2017-Oct-30 08:00N 49°01' W 123°09'0 0.0
2017-Oct-30 07:27N 49°01' W 123°09'0 0.0
2017-Oct-30 07:00N 49°01' W 123°09'0 0.0
2017-Oct-30 06:30N 49°01' W 123°09'0 0.0
2017-Oct-30 06:00N 49°01' W 123°09'0 0.0
2017-Oct-30 05:30N 49°01' W 123°09'2 3.4
2017-Oct-30 05:01N 48°60' W 123°10'5 9.5
2017-Oct-30 04:30N 48°55' W 123°06'918.6
2017-Oct-30 04:00N 48°47' W 123°01'1019.3
2017-Oct-30 03:30N 48°43' W 123°14'918.9
2017-Oct-30 03:00N 48°33' W 123°12'917.8
2017-Oct-30 02:30N 48°24' W 123°12'815.6
2017-Oct-30 02:00N 48°22' W 123°23'4 8.7
2017-Oct-30 01:31N 48°18' W 123°25'713.8
2017-Oct-30 01:00N 48°13' W 123°33'815.4
2017-Oct-30 00:30N 48°14' W 123°44'815.6
2017-Oct-29 23:59N 48°14' W 123°57'715.1
2017-Oct-29 23:30N 48°17' W 124°07'815.2
2017-Oct-29 23:00N 48°20' W 124°17'815.3
2017-Oct-29 22:30N 48°23' W 124°28'714.5
2017-Oct-29 22:00N 48°26' W 124°37'815.8
2017-Oct-29 21:30N 48°29' W 124°49'714.8
2017-Oct-29 21:00N 48°28' W 124°60'815.2
2017-Oct-29 20:30N 48°22' W 125°05'816.0
2017-Oct-29 20:00N 48°14' W 125°10'815.7
2017-Oct-29 19:29N 48°07' W 125°14'6815.9
2017-Oct-29 15:13N 46°59' W 125°26'316.2
2017-Oct-29 15:00N 46°56' W 125°26'816.7
2017-Oct-29 14:30N 46°47' W 125°26'816.8
2017-Oct-29 14:00N 46°39' W 125°26'816.8
2017-Oct-29 13:30N 46°30' W 125°26'816.7
2017-Oct-29 13:00N 46°22' W 125°26'916.5
2017-Oct-29 12:29N 46°14' W 125°26'816.5
2017-Oct-29 12:01N 46°06' W 125°26'816.1
2017-Oct-29 11:30N 45°58' W 125°26'815.9
2017-Oct-29 11:00N 45°50' W 125°27'816.2
2017-Oct-29 10:30N 45°42' W 125°27'816.0
2017-Oct-29 10:00N 45°34' W 125°27'816.0
2017-Oct-29 09:30N 45°26' W 125°27'816.3
2017-Oct-29 09:00N 45°17' W 125°26'1116.4
2017-Oct-29 08:21N 45°07' W 125°26'616.2
2017-Oct-29 08:00N 45°01' W 125°26'1116.0
2017-Oct-29 07:21N 44°50' W 125°25'616.2
2017-Oct-29 07:00N 44°45' W 125°25'1415.9
2017-Oct-29 06:07N 44°31' W 125°23'615.9
2017-Oct-29 05:46N 44°26' W 125°22'415.9
2017-Oct-29 05:30N 44°21' W 125°21'1216.5
2017-Oct-29 04:48N 44°10' W 125°20'616.5
2017-Oct-29 04:24N 44°03' W 125°18'716.6
2017-Oct-29 04:00N 43°57' W 125°17'  
Track history (hours):
 
Tides and Currents Weather Stations Pressure Air Temp Water Temp Dewpoint Dewpoint Depression Visibility Wind Speed Wind Dir Waves Ship Positions

MSC Channe

Last reported at 2017-Nov-07 11:32 UTC. Time now 2017-Nov-23 00:19 UTC.
Position N 32°14' W 117°30'.
Warning: this ship's position is 15 days out of date.

Length 299 m; draft 10.8 m.

Type: Ship (hazmat cat B). MMSI: 255805864.

Date/timePositionNaut miles runAvg speedWind from/ knotsBaromVisibWave heightAir tempDewpointWater temp
2017-Nov-07 11:32N 32°14' W 117°30'116.5
2017-Nov-07 11:30N 32°15' W 117°31'816.2
2017-Nov-07 11:00N 32°22' W 117°34'815.9
2017-Nov-07 10:30N 32°30' W 117°36'612.8
2017-Nov-07 10:01N 32°36' W 117°39'510.9
2017-Nov-07 09:30N 32°41' W 117°42'611.2
2017-Nov-07 09:00N 32°45' W 117°46'611.5
2017-Nov-07 08:31N 32°50' W 117°49'611.5
2017-Nov-07 08:00N 32°55' W 117°53'611.2
2017-Nov-07 07:30N 33°00' W 117°56'611.3
2017-Nov-07 07:00N 33°05' W 117°59'611.1
2017-Nov-07 06:30N 33°10' W 118°02'511.0
2017-Nov-07 06:00N 33°15' W 118°05'511.0
2017-Nov-07 05:31N 33°20' W 118°07'611.1
2017-Nov-07 05:00N 33°26' W 118°09'611.6
2017-Nov-07 04:31N 33°31' W 118°11'611.0
2017-Nov-07 04:00N 33°36' W 118°13'611.2
2017-Nov-07 03:30N 33°42' W 118°11'3 6.7
2017-Nov-07 03:00N 33°45' W 118°13'1 0.2
2017-Nov-06 21:47N 33°45' W 118°14'92 4.7
2017-Nov-06 02:26N 34°12' W 119°60'6 9.6
2017-Nov-06 01:49N 34°14' W 120°07'3 9.3
2017-Nov-06 01:30N 34°15' W 120°10'5 9.5
2017-Nov-06 00:59N 34°16' W 120°16'6 9.7
2017-Nov-06 00:24N 34°18' W 120°23'4 9.9
2017-Nov-06 00:00N 34°19' W 120°27'5 9.9
2017-Nov-05 23:30N 34°20' W 120°33'5 9.7
2017-Nov-05 22:58N 34°21' W 120°39'6 9.8
2017-Nov-05 22:24N 34°23' W 120°45'4 9.6
2017-Nov-05 22:00N 34°24' W 120°50'611.0
2017-Nov-05 21:30N 34°26' W 120°56'816.4
2017-Nov-05 21:00N 34°29' W 121°05'815.5
2017-Nov-05 20:30N 34°35' W 121°11'816.2
2017-Nov-05 20:00N 34°42' W 121°16'714.2
2017-Nov-05 19:30N 34°48' W 121°20'714.0
2017-Nov-05 19:00N 34°54' W 121°24'713.6
2017-Nov-05 18:30N 35°00' W 121°28'713.7
2017-Nov-05 18:00N 35°06' W 121°32'714.2
2017-Nov-05 17:30N 35°13' W 121°36'714.0
2017-Nov-05 17:00N 35°19' W 121°40'714.0
2017-Nov-05 16:30N 35°25' W 121°44'1014.0
2017-Nov-05 15:47N 35°34' W 121°50'8714.0
2017-Nov-05 09:33N 36°53' W 122°36'214.2
2017-Nov-05 09:25N 36°55' W 122°36'614.2
2017-Nov-05 09:00N 37°01' W 122°39'714.5
2017-Nov-05 08:30N 37°07' W 122°42'714.3
2017-Nov-05 08:00N 37°14' W 122°44'611.0
2017-Nov-05 07:30N 37°20' W 122°44'5 9.7
2017-Nov-05 07:01N 37°25' W 122°44'5 9.5
2017-Nov-05 06:30N 37°29' W 122°44'5 9.6
2017-Nov-05 06:00N 37°34' W 122°44'5 9.5
2017-Nov-05 05:30N 37°39' W 122°43'5 9.4
2017-Nov-05 05:00N 37°43' W 122°42'5 9.4
2017-Nov-05 04:31N 37°46' W 122°37'816.8
2017-Nov-05 04:01N 37°50' W 122°27'611.4
2017-Nov-05 03:31N 37°48' W 122°21'3 5.1
2017-Nov-05 03:01N 37°48' W 122°17'1 1.9
2017-Nov-05 02:31N 37°48' W 122°19'1 1.2
2017-Nov-05 02:01N 37°48' W 122°19'0 0.0
2017-Nov-05 01:31N 37°48' W 122°19'0 0.0
2017-Nov-05 01:01N 37°48' W 122°19'0 0.0
2017-Nov-05 00:30N 37°48' W 122°19'0 0.0
2017-Nov-05 00:00N 37°48' W 122°19'0 0.0
2017-Nov-04 23:30N 37°48' W 122°19'0 0.0
2017-Nov-04 23:00N 37°48' W 122°19'0 0.0
2017-Nov-04 22:29N 37°48' W 122°19'0 0.0
2017-Nov-04 22:00N 37°48' W 122°19'0 0.0
2017-Nov-04 21:29N 37°48' W 122°19'0 0.0
2017-Nov-04 20:59N 37°48' W 122°19'0 0.0
2017-Nov-04 20:30N 37°48' W 122°19'0 0.0
2017-Nov-04 19:59N 37°48' W 122°19'0 0.0
2017-Nov-04 19:29N 37°48' W 122°19'0 0.0
2017-Nov-04 18:59N 37°48' W 122°19'0 0.0
2017-Nov-04 18:30N 37°48' W 122°19'0 0.0
2017-Nov-04 17:59N 37°48' W 122°19'0 0.0
2017-Nov-04 17:29N 37°48' W 122°19'0 0.0
2017-Nov-04 17:00N 37°48' W 122°19'0 0.0
2017-Nov-04 16:29N 37°48' W 122°19'0 0.0
2017-Nov-04 16:00N 37°48' W 122°19'0 0.0
2017-Nov-04 15:29N 37°48' W 122°19'0 0.0
2017-Nov-04 14:59N 37°48' W 122°19'0 0.0
2017-Nov-04 14:29N 37°48' W 122°19'0 0.0
2017-Nov-04 14:00N 37°48' W 122°19'0 0.0
2017-Nov-04 13:29N 37°48' W 122°19'0 0.0
2017-Nov-04 13:00N 37°48' W 122°19'3 6.2
2017-Nov-04 12:31N 37°49' W 122°23'612.7
2017-Nov-04 12:01N 37°48' W 122°31'815.4
2017-Nov-04 11:30N 37°46' W 122°40'4 8.5
2017-Nov-04 11:00N 37°46' W 122°46'3 6.5
2017-Nov-04 10:30N 37°48' W 122°49'4 8.9
2017-Nov-04 10:00N 37°50' W 122°54'5 9.1
2017-Nov-04 09:30N 37°52' W 122°59'5 9.0
2017-Nov-04 09:00N 37°54' W 123°05'4 8.8
2017-Nov-04 08:30N 37°56' W 123°09'4 9.0
2017-Nov-04 08:00N 37°59' W 123°13'5 9.4
2017-Nov-04 07:30N 38°03' W 123°17'5 9.5
2017-Nov-04 07:00N 38°07' W 123°21'510.7
2017-Nov-04 06:30N 38°11' W 123°25'612.4
2017-Nov-04 06:00N 38°16' W 123°29'713.2
2017-Nov-04 05:30N 38°22' W 123°34'713.3
2017-Nov-04 05:00N 38°27' W 123°39'713.4
2017-Nov-04 04:30N 38°33' W 123°44'713.4
2017-Nov-04 04:00N 38°38' W 123°48'713.2
2017-Nov-04 03:30N 38°44' W 123°53'612.6
2017-Nov-04 03:00N 38°49' W 123°58'39013.8
2017-Nov-02 22:49N 45°16' W 125°05'414.0
2017-Nov-02 22:30N 45°20' W 125°05'714.0
2017-Nov-02 22:01N 45°27' W 125°06'713.7
2017-Nov-02 21:30N 45°34' W 125°06'713.8
2017-Nov-02 21:01N 45°41' W 125°06'714.1
2017-Nov-02 20:30N 45°48' W 125°07'714.7
2017-Nov-02 20:01N 45°55' W 125°08'815.6
2017-Nov-02 19:31N 46°03' W 125°09'815.1
2017-Nov-02 19:01N 46°10' W 125°09'714.7
2017-Nov-02 18:30N 46°18' W 125°09'714.6
2017-Nov-02 18:01N 46°25' W 125°10'715.0
2017-Nov-02 17:31N 46°32' W 125°10'714.9
2017-Nov-02 17:00N 46°40' W 125°10'714.8
2017-Nov-02 16:30N 46°47' W 125°11'714.8
2017-Nov-02 16:01N 46°55' W 125°12'7019.2
2017-Nov-02 12:21N 48°05' W 125°13'821.0
2017-Nov-02 11:58N 48°13' W 125°11'511.6
2017-Nov-02 11:30N 48°18' W 125°09'5 9.2
2017-Nov-02 10:59N 48°23' W 125°08'510.3
2017-Nov-02 10:30N 48°27' W 125°05'510.1
2017-Nov-02 10:00N 48°31' W 124°60'510.4
2017-Nov-02 09:30N 48°31' W 124°52'5 9.6
2017-Nov-02 09:00N 48°31' W 124°45'4 8.2
2017-Nov-02 08:30N 48°29' W 124°39'5 9.1
2017-Nov-02 08:00N 48°27' W 124°33'4 8.2
2017-Nov-02 07:30N 48°26' W 124°27'510.1
2017-Nov-02 07:00N 48°24' W 124°20'510.6
2017-Nov-02 06:30N 48°22' W 124°12'611.4
2017-Nov-02 06:00N 48°20' W 124°04'611.4
2017-Nov-02 05:30N 48°18' W 123°56'612.8
2017-Nov-02 05:00N 48°17' W 123°47'715.1
2017-Nov-02 04:30N 48°16' W 123°36'713.6
2017-Nov-02 04:01N 48°13' W 123°27'510.6
2017-Nov-02 03:30N 48°09' W 123°21'1019.7
2017-Nov-02 03:00N 48°13' W 123°07'1020.4
2017-Nov-02 02:30N 48°12' W 122°52'1320.8
2017-Nov-02 01:52N 48°02' W 122°38'821.5
2017-Nov-02 01:31N 47°56' W 122°31'918.8
2017-Nov-02 01:01N 47°47' W 122°26'917.4
2017-Nov-02 00:31N 47°39' W 122°27'510.2
2017-Nov-02 00:00N 47°36' W 122°21'0 0.1
2017-Nov-01 23:31N 47°36' W 122°21'0 0.0
2017-Nov-01 23:00N 47°36' W 122°21'0 0.0
2017-Nov-01 22:30N 47°36' W 122°21'0 0.0
2017-Nov-01 22:00N 47°36' W 122°21'0 0.0
2017-Nov-01 21:31N 47°36' W 122°21'0 0.0
2017-Nov-01 21:00N 47°36' W 122°21'0 0.0
2017-Nov-01 20:30N 47°36' W 122°21'0 0.0
2017-Nov-01 20:00N 47°36' W 122°21'0 0.0
2017-Nov-01 19:30N 47°36' W 122°21'0 0.0
2017-Nov-01 19:00N 47°36' W 122°21'0 0.0
2017-Nov-01 18:30N 47°36' W 122°21'0 0.0
2017-Nov-01 02:00N 47°36' W 122°21'0 0.0
2017-Nov-01 01:30N 47°36' W 122°21'0 0.0
2017-Nov-01 01:00N 47°36' W 122°21'0 0.0
2017-Nov-01 00:30N 47°36' W 122°21'0 0.0
2017-Nov-01 00:00N 47°36' W 122°21'0 0.0
2017-Oct-31 23:30N 47°36' W 122°21'0 0.0
2017-Oct-31 23:00N 47°36' W 122°21'0 0.0
2017-Oct-31 22:30N 47°36' W 122°21'0 0.0
2017-Oct-31 22:00N 47°36' W 122°21'0 0.0
2017-Oct-31 21:30N 47°36' W 122°21'0 0.0
2017-Oct-31 21:01N 47°36' W 122°21'0 0.0
2017-Oct-31 20:30N 47°36' W 122°21'0 0.0
2017-Oct-31 20:00N 47°36' W 122°21'0 0.0
2017-Oct-31 19:30N 47°36' W 122°21'0 0.0
2017-Oct-31 19:00N 47°36' W 122°21'0 0.0
2017-Oct-31 18:30N 47°36' W 122°21'0 0.0
2017-Oct-31 18:00N 47°36' W 122°21'0 0.0
2017-Oct-31 17:30N 47°36' W 122°21'0 0.0
2017-Oct-31 17:01N 47°36' W 122°21'2 3.5
2017-Oct-31 16:30N 47°36' W 122°23'613.0
2017-Oct-31 16:01N 47°42' W 122°28'1021.0
2017-Oct-31 15:31N 47°52' W 122°29'1119.7
2017-Oct-31 14:58N 48°01' W 122°38'918.9
2017-Oct-31 14:30N 48°09' W 122°43'1019.5
2017-Oct-31 14:00N 48°11' W 122°57'1020.5
2017-Oct-31 13:31N 48°11' W 123°13'714.9
2017-Oct-31 13:01N 48°10' W 123°24'4 8.8
2017-Oct-31 12:30N 48°12' W 123°29'4 6.9
2017-Oct-31 11:59N 48°16' W 123°30'4 8.9
2017-Oct-31 11:30N 48°19' W 123°27'4 7.9
2017-Oct-31 11:00N 48°23' W 123°24'816.9
2017-Oct-31 10:30N 48°25' W 123°12'1122.7
2017-Oct-31 10:00N 48°37' W 123°14'917.2
2017-Oct-31 09:30N 48°44' W 123°08'815.2
2017-Oct-31 09:00N 48°51' W 123°04'919.0
2017-Oct-31 08:30N 49°00' W 123°10'1 2.4
2017-Oct-31 07:57N 49°01' W 123°09'0 0.0
2017-Oct-31 07:27N 49°01' W 123°09'0 0.0
2017-Oct-31 06:57N 49°01' W 123°09'0 0.0
2017-Oct-31 06:30N 49°01' W 123°09'0 0.0
2017-Oct-31 05:57N 49°01' W 123°09'0 0.0
2017-Oct-31 05:30N 49°01' W 123°09'0 0.0
2017-Oct-31 05:01N 49°01' W 123°09'0 0.0
2017-Oct-31 04:27N 49°01' W 123°09'0 0.0
2017-Oct-31 04:00N 49°01' W 123°09'0 0.0
2017-Oct-31 03:27N 49°01' W 123°09'0 0.0
2017-Oct-31 02:57N 49°01' W 123°09'0 0.0
2017-Oct-31 02:27N 49°01' W 123°09'0 0.0
2017-Oct-31 01:48N 49°01' W 123°09'0 0.0
2017-Oct-31 01:27N 49°01' W 123°09'0 0.0
2017-Oct-31 01:00N 49°01' W 123°09'0 0.0
2017-Oct-31 00:30N 49°01' W 123°09'0 0.0
2017-Oct-31 00:00N 49°01' W 123°09'0 0.0
2017-Oct-30 23:27N 49°01' W 123°09'0 0.0
2017-Oct-30 22:57N 49°01' W 123°09'0 0.0
2017-Oct-30 22:27N 49°01' W 123°09'0 0.0
2017-Oct-30 22:00N 49°01' W 123°09'0 0.0
2017-Oct-30 21:30N 49°01' W 123°09'0 0.0
2017-Oct-30 20:57N 49°01' W 123°09'0 0.0
2017-Oct-30 20:27N 49°01' W 123°09'0 0.0
2017-Oct-30 19:57N 49°01' W 123°09'0 0.0
2017-Oct-30 19:30N 49°01' W 123°09'0 0.0
2017-Oct-30 18:57N 49°01' W 123°09'0 0.0
2017-Oct-30 18:24N 49°01' W 123°09'0 0.0
2017-Oct-30 17:57N 49°01' W 123°09'0 0.0
2017-Oct-30 17:27N 49°01' W 123°09'0 0.0
2017-Oct-30 16:54N 49°01' W 123°09'0 0.0
2017-Oct-30 16:27N 49°01' W 123°09'0 0.0
2017-Oct-30 15:57N 49°01' W 123°09'0 0.0
2017-Oct-30 15:27N 49°01' W 123°09'0 0.0
2017-Oct-30 15:00N 49°01' W 123°09'0 0.0
2017-Oct-30 14:00N 49°01' W 123°09'0 0.0
2017-Oct-30 13:30N 49°01' W 123°09'0 0.0
2017-Oct-30 13:00N 49°01' W 123°09'0 0.0
2017-Oct-30 12:30N 49°01' W 123°09'0 0.0
2017-Oct-30 11:54N 49°01' W 123°09'0 0.0
2017-Oct-30 11:30N 49°01' W 123°09'0 0.0
2017-Oct-30 10:57N 49°01' W 123°09'0 0.0
2017-Oct-30 10:30N 49°01' W 123°09'0 0.0
2017-Oct-30 09:57N 49°01' W 123°09'0 0.0
2017-Oct-30 09:27N 49°01' W 123°09'0 0.0
2017-Oct-30 09:00N 49°01' W 123°09'0 0.0
2017-Oct-30 08:30N 49°01' W 123°09'0 0.0
2017-Oct-30 08:00N 49°01' W 123°09'0 0.0
2017-Oct-30 07:27N 49°01' W 123°09'0 0.0
2017-Oct-30 07:00N 49°01' W 123°09'0 0.0
2017-Oct-30 06:30N 49°01' W 123°09'0 0.0
2017-Oct-30 06:00N 49°01' W 123°09'0 0.0
2017-Oct-30 05:30N 49°01' W 123°09'2 3.4
2017-Oct-30 05:01N 48°60' W 123°10'5 9.5
2017-Oct-30 04:30N 48°55' W 123°06'918.6
2017-Oct-30 04:00N 48°47' W 123°01'1019.3
2017-Oct-30 03:30N 48°43' W 123°14'918.9
2017-Oct-30 03:00N 48°33' W 123°12'917.8
2017-Oct-30 02:30N 48°24' W 123°12'815.6
2017-Oct-30 02:00N 48°22' W 123°23'4 8.7
2017-Oct-30 01:31N 48°18' W 123°25'713.8
2017-Oct-30 01:00N 48°13' W 123°33'815.4
2017-Oct-30 00:30N 48°14' W 123°44'815.6
2017-Oct-29 23:59N 48°14' W 123°57'715.1
2017-Oct-29 23:30N 48°17' W 124°07'815.2
2017-Oct-29 23:00N 48°20' W 124°17'815.3
2017-Oct-29 22:30N 48°23' W 124°28'714.5
2017-Oct-29 22:00N 48°26' W 124°37'815.8
2017-Oct-29 21:30N 48°29' W 124°49'714.8
2017-Oct-29 21:00N 48°28' W 124°60'815.2
2017-Oct-29 20:30N 48°22' W 125°05'816.0
2017-Oct-29 20:00N 48°14' W 125°10'815.7
2017-Oct-29 19:29N 48°07' W 125°14'6815.9
2017-Oct-29 15:13N 46°59' W 125°26'316.2
2017-Oct-29 15:00N 46°56' W 125°26'816.7
2017-Oct-29 14:30N 46°47' W 125°26'816.8
2017-Oct-29 14:00N 46°39' W 125°26'816.8
2017-Oct-29 13:30N 46°30' W 125°26'816.7
2017-Oct-29 13:00N 46°22' W 125°26'916.5
2017-Oct-29 12:29N 46°14' W 125°26'816.5
2017-Oct-29 12:01N 46°06' W 125°26'816.1
2017-Oct-29 11:30N 45°58' W 125°26'815.9
2017-Oct-29 11:00N 45°50' W 125°27'816.2
2017-Oct-29 10:30N 45°42' W 125°27'816.0
2017-Oct-29 10:00N 45°34' W 125°27'816.0
2017-Oct-29 09:30N 45°26' W 125°27'816.3
2017-Oct-29 09:00N 45°17' W 125°26'1116.4
2017-Oct-29 08:21N 45°07' W 125°26'616.2
2017-Oct-29 08:00N 45°01' W 125°26'1116.0
2017-Oct-29 07:21N 44°50' W 125°25'616.2
2017-Oct-29 07:00N 44°45' W 125°25'1415.9
2017-Oct-29 06:07N 44°31' W 125°23'615.9
2017-Oct-29 05:46N 44°26' W 125°22'415.9
2017-Oct-29 05:30N 44°21' W 125°21'1216.5
2017-Oct-29 04:48N 44°10' W 125°20'616.5
2017-Oct-29 04:24N 44°03' W 125°18'716.6
2017-Oct-29 04:00N 43°57' W 125°17'  

Dump ship's entire track history